sensor_id;sensor_type;location;lat;lon;timestamp;P1;durP1;ratioP1;P2;durP2;ratioP2
39218;SDS011;24934;52.752;6.964;2024-03-23T00:53:29;63.03;;;19.97;;
39218;SDS011;24934;52.752;6.964;2024-03-23T00:55:55;53.63;;;18.50;;
39218;SDS011;24934;52.752;6.964;2024-03-23T00:58:21;49.97;;;19.07;;
39218;SDS011;24934;52.752;6.964;2024-03-23T01:00:47;62.17;;;18.60;;
39218;SDS011;24934;52.752;6.964;2024-03-23T01:03:13;64.63;;;19.17;;
39218;SDS011;24934;52.752;6.964;2024-03-23T01:05:39;65.10;;;20.43;;
39218;SDS011;24934;52.752;6.964;2024-03-23T01:08:05;72.40;;;20.07;;
39218;SDS011;24934;52.752;6.964;2024-03-23T01:10:31;62.83;;;21.40;;
39218;SDS011;24934;52.752;6.964;2024-03-23T01:12:57;72.13;;;20.67;;
39218;SDS011;24934;52.752;6.964;2024-03-23T01:15:23;70.47;;;21.87;;
39218;SDS011;24934;52.752;6.964;2024-03-23T01:17:49;78.50;;;21.70;;
39218;SDS011;24934;52.752;6.964;2024-03-23T01:20:15;64.83;;;20.43;;
39218;SDS011;24934;52.752;6.964;2024-03-23T01:22:41;62.83;;;19.67;;
39218;SDS011;24934;52.752;6.964;2024-03-23T01:25:07;67.93;;;20.20;;
39218;SDS011;24934;52.752;6.964;2024-03-23T01:27:33;60.00;;;20.43;;
39218;SDS011;24934;52.752;6.964;2024-03-23T01:29:59;70.77;;;20.37;;
39218;SDS011;24934;52.752;6.964;2024-03-23T01:32:25;60.30;;;19.13;;
39218;SDS011;24934;52.752;6.964;2024-03-23T01:34:51;74.90;;;19.67;;
39218;SDS011;24934;52.752;6.964;2024-03-23T01:37:17;61.67;;;18.97;;
39218;SDS011;24934;52.752;6.964;2024-03-23T01:39:43;57.83;;;19.13;;
39218;SDS011;24934;52.752;6.964;2024-03-23T01:42:09;73.17;;;20.33;;
39218;SDS011;24934;52.752;6.964;2024-03-23T01:44:35;69.13;;;20.13;;
39218;SDS011;24934;52.752;6.964;2024-03-23T01:47:01;66.00;;;19.17;;
39218;SDS011;24934;52.752;6.964;2024-03-23T01:49:27;58.20;;;19.90;;
39218;SDS011;24934;52.752;6.964;2024-03-23T01:51:53;60.60;;;19.13;;
39218;SDS011;24934;52.752;6.964;2024-03-23T01:54:19;53.00;;;18.87;;
39218;SDS011;24934;52.752;6.964;2024-03-23T01:57:03;59.53;;;18.70;;
39218;SDS011;24934;52.752;6.964;2024-03-23T01:59:30;55.77;;;19.27;;
39218;SDS011;24934;52.752;6.964;2024-03-23T02:01:56;65.77;;;19.50;;
39218;SDS011;24934;52.752;6.964;2024-03-23T02:04:22;59.90;;;18.57;;
39218;SDS011;24934;52.752;6.964;2024-03-23T02:06:48;58.87;;;18.53;;
39218;SDS011;24934;52.752;6.964;2024-03-23T02:09:14;60.90;;;18.67;;
39218;SDS011;24934;52.752;6.964;2024-03-23T02:11:40;56.20;;;18.83;;
39218;SDS011;24934;52.752;6.964;2024-03-23T02:14:06;61.63;;;20.00;;
39218;SDS011;24934;52.752;6.964;2024-03-23T02:16:32;55.67;;;19.70;;
39218;SDS011;24934;52.752;6.964;2024-03-23T02:18:58;58.40;;;19.53;;
39218;SDS011;24934;52.752;6.964;2024-03-23T02:21:25;63.43;;;19.73;;
39218;SDS011;24934;52.752;6.964;2024-03-23T02:23:52;60.70;;;18.83;;
39218;SDS011;24934;52.752;6.964;2024-03-23T02:26:18;58.63;;;20.23;;
39218;SDS011;24934;52.752;6.964;2024-03-23T02:28:44;53.87;;;21.10;;
39218;SDS011;24934;52.752;6.964;2024-03-23T02:31:10;59.97;;;20.77;;
39218;SDS011;24934;52.752;6.964;2024-03-23T02:33:36;59.83;;;20.60;;
39218;SDS011;24934;52.752;6.964;2024-03-23T02:36:03;58.37;;;21.73;;
39218;SDS011;24934;52.752;6.964;2024-03-23T02:38:29;60.87;;;21.13;;
39218;SDS011;24934;52.752;6.964;2024-03-23T02:41:00;64.00;;;21.13;;
39218;SDS011;24934;52.752;6.964;2024-03-23T02:43:26;56.87;;;19.20;;
39218;SDS011;24934;52.752;6.964;2024-03-23T02:45:52;73.77;;;20.83;;
39218;SDS011;24934;52.752;6.964;2024-03-23T02:48:18;71.03;;;20.37;;
39218;SDS011;24934;52.752;6.964;2024-03-23T02:50:44;65.17;;;20.20;;
39218;SDS011;24934;52.752;6.964;2024-03-23T02:53:13;65.10;;;20.50;;
39218;SDS011;24934;52.752;6.964;2024-03-23T02:55:39;63.77;;;20.13;;
39218;SDS011;24934;52.752;6.964;2024-03-23T02:58:05;59.03;;;20.80;;
39218;SDS011;24934;52.752;6.964;2024-03-23T03:00:31;57.87;;;20.37;;
39218;SDS011;24934;52.752;6.964;2024-03-23T03:02:56;54.43;;;20.07;;
39218;SDS011;24934;52.752;6.964;2024-03-23T03:05:22;65.60;;;20.70;;
39218;SDS011;24934;52.752;6.964;2024-03-23T03:07:48;62.90;;;20.40;;
39218;SDS011;24934;52.752;6.964;2024-03-23T03:10:14;63.27;;;21.30;;
39218;SDS011;24934;52.752;6.964;2024-03-23T03:12:41;58.90;;;20.33;;
39218;SDS011;24934;52.752;6.964;2024-03-23T03:15:07;69.87;;;21.50;;
39218;SDS011;24934;52.752;6.964;2024-03-23T03:17:34;73.17;;;20.70;;
39218;SDS011;24934;52.752;6.964;2024-03-23T03:20:00;68.43;;;20.57;;
39218;SDS011;24934;52.752;6.964;2024-03-23T03:22:26;64.40;;;20.73;;
39218;SDS011;24934;52.752;6.964;2024-03-23T03:24:52;66.63;;;21.87;;
39218;SDS011;24934;52.752;6.964;2024-03-23T03:27:18;66.30;;;22.90;;
39218;SDS011;24934;52.752;6.964;2024-03-23T03:29:44;66.27;;;23.57;;
39218;SDS011;24934;52.752;6.964;2024-03-23T03:32:10;65.23;;;21.73;;
39218;SDS011;24934;52.752;6.964;2024-03-23T03:34:36;67.03;;;21.97;;
39218;SDS011;24934;52.752;6.964;2024-03-23T03:37:02;64.47;;;20.80;;
39218;SDS011;24934;52.752;6.964;2024-03-23T03:39:29;65.87;;;21.63;;
39218;SDS011;24934;52.752;6.964;2024-03-23T03:41:55;68.10;;;22.60;;
39218;SDS011;24934;52.752;6.964;2024-03-23T03:44:21;79.13;;;21.67;;
39218;SDS011;24934;52.752;6.964;2024-03-23T03:46:47;61.53;;;21.37;;
39218;SDS011;24934;52.752;6.964;2024-03-23T03:49:13;58.33;;;21.20;;
39218;SDS011;24934;52.752;6.964;2024-03-23T03:51:39;64.10;;;21.50;;
39218;SDS011;24934;52.752;6.964;2024-03-23T03:54:05;57.53;;;21.37;;
39218;SDS011;24934;52.752;6.964;2024-03-23T03:56:31;54.70;;;20.13;;
39218;SDS011;24934;52.752;6.964;2024-03-23T03:58:57;66.17;;;20.87;;
39218;SDS011;24934;52.752;6.964;2024-03-23T04:01:23;74.23;;;20.80;;
39218;SDS011;24934;52.752;6.964;2024-03-23T04:03:49;59.20;;;21.70;;
39218;SDS011;24934;52.752;6.964;2024-03-23T04:06:19;68.77;;;21.90;;
39218;SDS011;24934;52.752;6.964;2024-03-23T04:08:45;67.97;;;23.07;;
39218;SDS011;24934;52.752;6.964;2024-03-23T04:11:11;68.70;;;22.27;;
39218;SDS011;24934;52.752;6.964;2024-03-23T04:13:37;72.30;;;21.77;;
39218;SDS011;24934;52.752;6.964;2024-03-23T04:16:03;66.67;;;21.07;;
39218;SDS011;24934;52.752;6.964;2024-03-23T04:18:29;73.53;;;21.90;;
39218;SDS011;24934;52.752;6.964;2024-03-23T04:20:55;61.83;;;20.53;;
39218;SDS011;24934;52.752;6.964;2024-03-23T04:23:21;67.43;;;21.13;;
39218;SDS011;24934;52.752;6.964;2024-03-23T04:25:47;61.53;;;21.27;;
39218;SDS011;24934;52.752;6.964;2024-03-23T04:28:13;68.67;;;20.43;;
39218;SDS011;24934;52.752;6.964;2024-03-23T04:30:39;66.30;;;20.20;;
39218;SDS011;24934;52.752;6.964;2024-03-23T04:33:05;61.43;;;19.90;;
39218;SDS011;24934;52.752;6.964;2024-03-23T04:35:31;57.83;;;19.60;;
39218;SDS011;24934;52.752;6.964;2024-03-23T04:37:57;65.40;;;20.13;;
39218;SDS011;24934;52.752;6.964;2024-03-23T04:40:23;67.77;;;20.20;;
39218;SDS011;24934;52.752;6.964;2024-03-23T04:42:49;67.90;;;19.67;;
39218;SDS011;24934;52.752;6.964;2024-03-23T04:45:15;65.37;;;19.83;;
39218;SDS011;24934;52.752;6.964;2024-03-23T04:47:41;64.27;;;19.10;;
39218;SDS011;24934;52.752;6.964;2024-03-23T04:50:08;58.40;;;19.00;;
39218;SDS011;24934;52.752;6.964;2024-03-23T04:52:35;55.97;;;18.67;;
39218;SDS011;24934;52.752;6.964;2024-03-23T04:55:01;55.67;;;18.20;;
39218;SDS011;24934;52.752;6.964;2024-03-23T04:57:27;63.57;;;19.67;;
39218;SDS011;24934;52.752;6.964;2024-03-23T04:59:54;62.53;;;20.30;;
39218;SDS011;24934;52.752;6.964;2024-03-23T05:02:20;62.53;;;21.03;;
39218;SDS011;24934;52.752;6.964;2024-03-23T05:04:46;65.00;;;21.80;;
39218;SDS011;24934;52.752;6.964;2024-03-23T05:07:12;66.80;;;21.07;;
39218;SDS011;24934;52.752;6.964;2024-03-23T05:09:38;68.83;;;21.97;;
39218;SDS011;24934;52.752;6.964;2024-03-23T05:12:04;62.03;;;20.60;;
39218;SDS011;24934;52.752;6.964;2024-03-23T05:14:30;79.37;;;22.20;;
39218;SDS011;24934;52.752;6.964;2024-03-23T05:16:56;62.30;;;21.80;;
39218;SDS011;24934;52.752;6.964;2024-03-23T05:19:22;68.17;;;21.77;;
39218;SDS011;24934;52.752;6.964;2024-03-23T05:21:48;67.40;;;22.70;;
39218;SDS011;24934;52.752;6.964;2024-03-23T05:24:14;68.87;;;23.00;;
39218;SDS011;24934;52.752;6.964;2024-03-23T05:26:40;69.23;;;23.30;;
39218;SDS011;24934;52.752;6.964;2024-03-23T05:29:06;69.63;;;22.63;;
39218;SDS011;24934;52.752;6.964;2024-03-23T05:31:35;56.87;;;21.90;;
39218;SDS011;24934;52.752;6.964;2024-03-23T05:34:02;62.63;;;23.00;;
39218;SDS011;24934;52.752;6.964;2024-03-23T05:36:28;61.53;;;22.33;;
39218;SDS011;24934;52.752;6.964;2024-03-23T05:38:55;67.30;;;23.43;;
39218;SDS011;24934;52.752;6.964;2024-03-23T05:41:20;68.20;;;23.53;;
39218;SDS011;24934;52.752;6.964;2024-03-23T05:43:49;64.50;;;22.97;;
39218;SDS011;24934;52.752;6.964;2024-03-23T05:46:15;55.23;;;22.73;;
39218;SDS011;24934;52.752;6.964;2024-03-23T05:48:40;58.07;;;22.80;;
39218;SDS011;24934;52.752;6.964;2024-03-23T05:51:06;60.07;;;22.97;;
39218;SDS011;24934;52.752;6.964;2024-03-23T05:53:33;63.90;;;21.47;;
39218;SDS011;24934;52.752;6.964;2024-03-23T05:56:02;60.80;;;21.47;;
39218;SDS011;24934;52.752;6.964;2024-03-23T05:58:29;62.97;;;22.07;;
39218;SDS011;24934;52.752;6.964;2024-03-23T06:00:59;52.10;;;21.03;;
39218;SDS011;24934;52.752;6.964;2024-03-23T06:03:26;60.57;;;21.30;;
39218;SDS011;24934;52.752;6.964;2024-03-23T06:05:52;62.50;;;21.30;;
39218;SDS011;24934;52.752;6.964;2024-03-23T06:08:18;60.50;;;21.47;;
39218;SDS011;24934;52.752;6.964;2024-03-23T06:10:45;54.83;;;21.50;;
39218;SDS011;24934;52.752;6.964;2024-03-23T06:13:11;48.83;;;20.83;;
39218;SDS011;24934;52.752;6.964;2024-03-23T06:15:37;56.23;;;20.97;;
39218;SDS011;24934;52.752;6.964;2024-03-23T06:18:03;55.10;;;21.27;;
39218;SDS011;24934;52.752;6.964;2024-03-23T06:20:30;50.10;;;21.33;;
39218;SDS011;24934;52.752;6.964;2024-03-23T06:22:56;51.87;;;21.13;;
39218;SDS011;24934;52.752;6.964;2024-03-23T06:25:22;47.33;;;21.57;;
39218;SDS011;24934;52.752;6.964;2024-03-23T06:27:48;39.87;;;20.23;;
39218;SDS011;24934;52.752;6.964;2024-03-23T06:30:14;49.20;;;18.50;;
39218;SDS011;24934;52.752;6.964;2024-03-23T06:32:40;46.70;;;20.23;;
39218;SDS011;24934;52.752;6.964;2024-03-23T06:35:06;44.73;;;19.63;;
39218;SDS011;24934;52.752;6.964;2024-03-23T06:37:35;44.63;;;19.80;;
39218;SDS011;24934;52.752;6.964;2024-03-23T06:40:02;41.67;;;19.97;;
39218;SDS011;24934;52.752;6.964;2024-03-23T06:42:29;39.27;;;20.07;;
39218;SDS011;24934;52.752;6.964;2024-03-23T06:44:55;45.07;;;20.40;;
39218;SDS011;24934;52.752;6.964;2024-03-23T06:47:21;34.93;;;19.27;;
39218;SDS011;24934;52.752;6.964;2024-03-23T06:49:47;31.60;;;17.33;;
39218;SDS011;24934;52.752;6.964;2024-03-23T06:52:13;42.57;;;18.23;;
39218;SDS011;24934;52.752;6.964;2024-03-23T06:54:48;33.37;;;18.40;;
39218;SDS011;24934;52.752;6.964;2024-03-23T06:57:19;25.37;;;18.30;;
39218;SDS011;24934;52.752;6.964;2024-03-23T06:59:45;27.13;;;18.90;;
39218;SDS011;24934;52.752;6.964;2024-03-23T07:02:11;29.43;;;19.47;;
39218;SDS011;24934;52.752;6.964;2024-03-23T07:04:37;21.67;;;18.90;;
39218;SDS011;24934;52.752;6.964;2024-03-23T07:07:06;23.73;;;20.17;;
39218;SDS011;24934;52.752;6.964;2024-03-23T07:09:34;22.97;;;18.90;;
39218;SDS011;24934;52.752;6.964;2024-03-23T07:12:00;26.93;;;18.33;;
39218;SDS011;24934;52.752;6.964;2024-03-23T07:14:26;25.63;;;19.17;;
39218;SDS011;24934;52.752;6.964;2024-03-23T07:16:52;23.73;;;18.70;;
39218;SDS011;24934;52.752;6.964;2024-03-23T07:19:18;26.27;;;18.33;;
39218;SDS011;24934;52.752;6.964;2024-03-23T07:21:44;33.87;;;18.17;;
39218;SDS011;24934;52.752;6.964;2024-03-23T07:24:11;24.20;;;18.33;;
39218;SDS011;24934;52.752;6.964;2024-03-23T07:26:37;34.33;;;18.97;;
39218;SDS011;24934;52.752;6.964;2024-03-23T07:29:04;25.33;;;18.30;;
39218;SDS011;24934;52.752;6.964;2024-03-23T07:31:30;26.50;;;18.87;;
39218;SDS011;24934;52.752;6.964;2024-03-23T07:33:56;23.77;;;17.30;;
39218;SDS011;24934;52.752;6.964;2024-03-23T07:36:22;22.53;;;17.27;;
39218;SDS011;24934;52.752;6.964;2024-03-23T07:38:48;19.37;;;17.37;;
39218;SDS011;24934;52.752;6.964;2024-03-23T07:41:15;23.00;;;18.93;;
39218;SDS011;24934;52.752;6.964;2024-03-23T07:43:42;20.43;;;17.57;;
39218;SDS011;24934;52.752;6.964;2024-03-23T07:46:09;21.27;;;18.83;;
39218;SDS011;24934;52.752;6.964;2024-03-23T07:48:35;21.60;;;19.30;;
39218;SDS011;24934;52.752;6.964;2024-03-23T07:53:35;20.17;;;18.03;;
39218;SDS011;24934;52.752;6.964;2024-03-23T07:56:02;31.63;;;19.20;;
39218;SDS011;24934;52.752;6.964;2024-03-23T07:58:29;25.17;;;19.23;;
39218;SDS011;24934;52.752;6.964;2024-03-23T08:01:03;28.20;;;19.47;;
39218;SDS011;24934;52.752;6.964;2024-03-23T08:03:29;27.07;;;19.97;;
39218;SDS011;24934;52.752;6.964;2024-03-23T08:05:55;28.50;;;20.07;;
39218;SDS011;24934;52.752;6.964;2024-03-23T08:08:22;32.30;;;21.83;;
39218;SDS011;24934;52.752;6.964;2024-03-23T08:10:51;31.50;;;19.87;;
39218;SDS011;24934;52.752;6.964;2024-03-23T08:13:18;29.53;;;19.60;;
39218;SDS011;24934;52.752;6.964;2024-03-23T08:15:44;28.20;;;20.30;;
39218;SDS011;24934;52.752;6.964;2024-03-23T08:18:12;20.47;;;18.37;;
39218;SDS011;24934;52.752;6.964;2024-03-23T08:20:38;25.60;;;18.57;;
39218;SDS011;24934;52.752;6.964;2024-03-23T08:23:05;19.33;;;17.53;;
39218;SDS011;24934;52.752;6.964;2024-03-23T08:25:32;19.17;;;17.27;;
39218;SDS011;24934;52.752;6.964;2024-03-23T08:27:58;20.70;;;17.43;;
39218;SDS011;24934;52.752;6.964;2024-03-23T08:30:24;18.87;;;16.83;;
39218;SDS011;24934;52.752;6.964;2024-03-23T08:32:50;17.83;;;16.20;;
39218;SDS011;24934;52.752;6.964;2024-03-23T08:35:16;19.17;;;16.73;;
39218;SDS011;24934;52.752;6.964;2024-03-23T08:37:42;18.63;;;16.50;;
39218;SDS011;24934;52.752;6.964;2024-03-23T08:40:08;23.53;;;16.73;;
39218;SDS011;24934;52.752;6.964;2024-03-23T08:42:41;24.20;;;17.77;;
39218;SDS011;24934;52.752;6.964;2024-03-23T08:45:07;26.67;;;17.53;;
39218;SDS011;24934;52.752;6.964;2024-03-23T08:47:36;27.30;;;17.07;;
39218;SDS011;24934;52.752;6.964;2024-03-23T08:50:02;30.37;;;18.10;;
39218;SDS011;24934;52.752;6.964;2024-03-23T08:52:28;24.47;;;18.90;;
39218;SDS011;24934;52.752;6.964;2024-03-23T08:54:55;24.57;;;18.03;;
39218;SDS011;24934;52.752;6.964;2024-03-23T08:57:21;27.37;;;18.37;;
39218;SDS011;24934;52.752;6.964;2024-03-23T08:59:47;20.30;;;18.10;;
39218;SDS011;24934;52.752;6.964;2024-03-23T09:02:13;20.20;;;18.10;;
39218;SDS011;24934;52.752;6.964;2024-03-23T09:04:40;24.43;;;17.23;;
39218;SDS011;24934;52.752;6.964;2024-03-23T09:07:06;21.60;;;16.67;;
39218;SDS011;24934;52.752;6.964;2024-03-23T09:09:32;20.77;;;17.37;;
39218;SDS011;24934;52.752;6.964;2024-03-23T09:11:58;25.43;;;18.53;;
39218;SDS011;24934;52.752;6.964;2024-03-23T09:14:24;18.63;;;16.77;;
39218;SDS011;24934;52.752;6.964;2024-03-23T09:16:50;18.23;;;16.47;;
39218;SDS011;24934;52.752;6.964;2024-03-23T09:19:16;18.93;;;16.97;;
39218;SDS011;24934;52.752;6.964;2024-03-23T09:21:43;19.10;;;17.43;;
39218;SDS011;24934;52.752;6.964;2024-03-23T09:24:09;17.60;;;15.80;;
39218;SDS011;24934;52.752;6.964;2024-03-23T09:26:35;18.53;;;16.50;;
39218;SDS011;24934;52.752;6.964;2024-03-23T09:29:04;18.73;;;17.07;;
39218;SDS011;24934;52.752;6.964;2024-03-23T09:31:30;18.00;;;16.20;;
39218;SDS011;24934;52.752;6.964;2024-03-23T09:33:58;19.53;;;17.47;;
39218;SDS011;24934;52.752;6.964;2024-03-23T09:36:24;18.87;;;16.97;;
39218;SDS011;24934;52.752;6.964;2024-03-23T09:38:50;19.57;;;17.53;;
39218;SDS011;24934;52.752;6.964;2024-03-23T09:41:16;19.57;;;17.60;;
39218;SDS011;24934;52.752;6.964;2024-03-23T09:43:42;19.73;;;17.80;;
39218;SDS011;24934;52.752;6.964;2024-03-23T09:46:08;20.10;;;18.33;;
39218;SDS011;24934;52.752;6.964;2024-03-23T09:48:34;21.37;;;19.00;;
39218;SDS011;24934;52.752;6.964;2024-03-23T09:51:02;20.00;;;17.97;;
39218;SDS011;24934;52.752;6.964;2024-03-23T09:53:28;20.43;;;18.03;;
39218;SDS011;24934;52.752;6.964;2024-03-23T09:55:54;20.70;;;18.37;;
39218;SDS011;24934;52.752;6.964;2024-03-23T09:58:20;18.90;;;17.13;;
39218;SDS011;24934;52.752;6.964;2024-03-23T10:00:46;19.13;;;17.23;;
39218;SDS011;24934;52.752;6.964;2024-03-23T10:03:12;19.63;;;17.63;;
39218;SDS011;24934;52.752;6.964;2024-03-23T10:05:38;20.70;;;18.60;;
39218;SDS011;24934;52.752;6.964;2024-03-23T10:08:16;20.35;;;16.60;;
39218;SDS011;24934;52.752;6.964;2024-03-23T10:10:43;21.02;;;19.05;;
39218;SDS011;24934;52.752;6.964;2024-03-23T10:13:12;21.60;;;19.33;;
39218;SDS011;24934;52.752;6.964;2024-03-23T10:15:50;22.63;;;17.00;;
39218;SDS011;24934;52.752;6.964;2024-03-23T10:18:20;20.50;;;17.90;;
39218;SDS011;24934;52.752;6.964;2024-03-23T10:21:06;21.17;;;18.97;;
39218;SDS011;24934;52.752;6.964;2024-03-23T10:23:33;20.43;;;18.30;;
39218;SDS011;24934;52.752;6.964;2024-03-23T10:28:56;21.27;;;18.23;;
39218;SDS011;24934;52.752;6.964;2024-03-23T10:31:33;21.13;;;18.97;;
39218;SDS011;24934;52.752;6.964;2024-03-23T10:34:02;20.33;;;17.83;;
39218;SDS011;24934;52.752;6.964;2024-03-23T10:36:29;21.40;;;19.20;;
39218;SDS011;24934;52.752;6.964;2024-03-23T10:38:55;21.63;;;16.73;;
39218;SDS011;24934;52.752;6.964;2024-03-23T10:41:28;17.43;;;15.53;;
39218;SDS011;24934;52.752;6.964;2024-03-23T10:43:57;16.23;;;14.70;;
39218;SDS011;24934;52.752;6.964;2024-03-23T10:46:24;18.20;;;16.50;;
39218;SDS011;24934;52.752;6.964;2024-03-23T10:48:50;16.93;;;15.43;;
39218;SDS011;24934;52.752;6.964;2024-03-23T10:51:16;18.77;;;16.87;;
39218;SDS011;24934;52.752;6.964;2024-03-23T10:53:42;19.10;;;17.03;;
39218;SDS011;24934;52.752;6.964;2024-03-23T10:56:08;19.67;;;17.80;;
39218;SDS011;24934;52.752;6.964;2024-03-23T10:58:40;18.57;;;16.63;;
39218;SDS011;24934;52.752;6.964;2024-03-23T11:01:06;19.77;;;16.90;;
39218;SDS011;24934;52.752;6.964;2024-03-23T11:05:59;17.95;;;16.20;;
39218;SDS011;24934;52.752;6.964;2024-03-23T11:08:32;20.40;;;16.02;;
39218;SDS011;24934;52.752;6.964;2024-03-23T11:11:12;16.08;;;14.43;;
39218;SDS011;24934;52.752;6.964;2024-03-23T11:13:38;16.33;;;14.38;;
39218;SDS011;24934;52.752;6.964;2024-03-23T11:16:15;18.65;;;16.20;;
39218;SDS011;24934;52.752;6.964;2024-03-23T11:18:45;19.48;;;16.13;;
39218;SDS011;24934;52.752;6.964;2024-03-23T11:21:11;24.63;;;17.08;;
39218;SDS011;24934;52.752;6.964;2024-03-23T11:24:15;18.42;;;16.50;;
39218;SDS011;24934;52.752;6.964;2024-03-23T11:26:41;18.35;;;14.23;;
39218;SDS011;24934;52.752;6.964;2024-03-23T11:29:11;19.52;;;15.07;;
39218;SDS011;24934;52.752;6.964;2024-03-23T11:31:37;19.52;;;14.23;;
39218;SDS011;24934;52.752;6.964;2024-03-23T11:34:04;16.73;;;13.40;;
39218;SDS011;24934;52.752;6.964;2024-03-23T11:36:31;16.90;;;12.70;;
39218;SDS011;24934;52.752;6.964;2024-03-23T11:38:57;18.38;;;13.25;;
39218;SDS011;24934;52.752;6.964;2024-03-23T11:41:23;18.77;;;13.98;;
39218;SDS011;24934;52.752;6.964;2024-03-23T11:43:49;18.15;;;13.73;;
39218;SDS011;24934;52.752;6.964;2024-03-23T11:46:22;15.30;;;13.73;;
39218;SDS011;24934;52.752;6.964;2024-03-23T11:48:51;16.73;;;14.97;;
39218;SDS011;24934;52.752;6.964;2024-03-23T11:51:17;17.57;;;14.10;;
39218;SDS011;24934;52.752;6.964;2024-03-23T11:53:43;15.70;;;12.70;;
39218;SDS011;24934;52.752;6.964;2024-03-23T11:56:09;17.90;;;12.07;;
39218;SDS011;24934;52.752;6.964;2024-03-23T11:58:35;19.20;;;13.23;;
39218;SDS011;24934;52.752;6.964;2024-03-23T12:01:02;14.57;;;13.03;;
39218;SDS011;24934;52.752;6.964;2024-03-23T12:03:28;15.53;;;12.60;;
39218;SDS011;24934;52.752;6.964;2024-03-23T12:05:55;16.17;;;14.03;;
39218;SDS011;24934;52.752;6.964;2024-03-23T12:10:48;15.97;;;14.33;;
39218;SDS011;24934;52.752;6.964;2024-03-23T12:13:16;17.00;;;14.13;;
39218;SDS011;24934;52.752;6.964;2024-03-23T12:15:44;14.60;;;13.10;;
39218;SDS011;24934;52.752;6.964;2024-03-23T12:18:10;16.60;;;13.40;;
39218;SDS011;24934;52.752;6.964;2024-03-23T12:20:37;14.13;;;12.60;;
39218;SDS011;24934;52.752;6.964;2024-03-23T12:23:12;14.60;;;12.60;;
39218;SDS011;24934;52.752;6.964;2024-03-23T12:25:39;16.40;;;14.83;;
39218;SDS011;24934;52.752;6.964;2024-03-23T12:28:06;15.77;;;14.27;;
39218;SDS011;24934;52.752;6.964;2024-03-23T12:30:38;16.63;;;15.07;;
39218;SDS011;24934;52.752;6.964;2024-03-23T12:33:05;17.73;;;15.97;;
39218;SDS011;24934;52.752;6.964;2024-03-23T12:35:31;18.63;;;16.43;;
39218;SDS011;24934;52.752;6.964;2024-03-23T12:38:00;16.87;;;15.47;;
39218;SDS011;24934;52.752;6.964;2024-03-23T12:40:26;16.43;;;14.73;;
39218;SDS011;24934;52.752;6.964;2024-03-23T12:42:53;16.50;;;14.97;;
39218;SDS011;24934;52.752;6.964;2024-03-23T12:45:20;19.53;;;14.80;;
39218;SDS011;24934;52.752;6.964;2024-03-23T12:47:49;21.90;;;14.77;;
39218;SDS011;24934;52.752;6.964;2024-03-23T12:50:17;16.57;;;14.73;;
39218;SDS011;24934;52.752;6.964;2024-03-23T12:52:48;15.87;;;14.23;;
39218;SDS011;24934;52.752;6.964;2024-03-23T12:55:14;14.90;;;13.50;;
39218;SDS011;24934;52.752;6.964;2024-03-23T12:57:45;16.53;;;14.20;;
39218;SDS011;24934;52.752;6.964;2024-03-23T13:00:16;19.23;;;14.23;;
39218;SDS011;24934;52.752;6.964;2024-03-23T13:02:45;17.93;;;15.20;;
39218;SDS011;24934;52.752;6.964;2024-03-23T13:05:11;18.70;;;15.77;;
39218;SDS011;24934;52.752;6.964;2024-03-23T13:07:45;16.60;;;15.00;;
39218;SDS011;24934;52.752;6.964;2024-03-23T13:10:20;21.53;;;16.33;;
39218;SDS011;24934;52.752;6.964;2024-03-23T13:12:50;16.97;;;14.97;;
39218;SDS011;24934;52.752;6.964;2024-03-23T13:15:25;17.90;;;13.93;;
39218;SDS011;24934;52.752;6.964;2024-03-23T13:17:54;16.03;;;14.57;;
39218;SDS011;24934;52.752;6.964;2024-03-23T13:20:23;15.73;;;14.43;;
39218;SDS011;24934;52.752;6.964;2024-03-23T13:23:11;16.20;;;14.70;;
39218;SDS011;24934;52.752;6.964;2024-03-23T13:25:39;17.50;;;15.77;;
39218;SDS011;24934;52.752;6.964;2024-03-23T13:28:18;17.77;;;16.13;;
39218;SDS011;24934;52.752;6.964;2024-03-23T13:31:05;17.50;;;15.50;;
39218;SDS011;24934;52.752;6.964;2024-03-23T13:33:33;22.87;;;16.10;;
39218;SDS011;24934;52.752;6.964;2024-03-23T13:38:44;15.87;;;14.10;;
39218;SDS011;24934;52.752;6.964;2024-03-23T13:41:12;16.47;;;14.60;;
39218;SDS011;24934;52.752;6.964;2024-03-23T13:43:46;15.03;;;13.60;;
39218;SDS011;24934;52.752;6.964;2024-03-23T13:46:12;14.30;;;13.00;;
39218;SDS011;24934;52.752;6.964;2024-03-23T13:48:38;14.83;;;13.63;;
39218;SDS011;24934;52.752;6.964;2024-03-23T13:51:04;16.17;;;14.53;;
39218;SDS011;24934;52.752;6.964;2024-03-23T13:53:31;16.53;;;15.03;;
39218;SDS011;24934;52.752;6.964;2024-03-23T13:55:57;16.87;;;15.10;;
39218;SDS011;24934;52.752;6.964;2024-03-23T13:58:23;17.37;;;15.57;;
39218;SDS011;24934;52.752;6.964;2024-03-23T14:00:52;17.57;;;15.87;;
39218;SDS011;24934;52.752;6.964;2024-03-23T14:03:19;21.07;;;17.90;;
39218;SDS011;24934;52.752;6.964;2024-03-23T14:05:45;18.27;;;15.63;;
39218;SDS011;24934;52.752;6.964;2024-03-23T14:08:12;20.37;;;17.57;;
39218;SDS011;24934;52.752;6.964;2024-03-23T14:10:41;19.43;;;17.33;;
39218;SDS011;24934;52.752;6.964;2024-03-23T14:13:08;21.77;;;16.60;;
39218;SDS011;24934;52.752;6.964;2024-03-23T14:15:34;21.60;;;16.67;;
39218;SDS011;24934;52.752;6.964;2024-03-23T14:18:03;19.53;;;16.47;;
39218;SDS011;24934;52.752;6.964;2024-03-23T14:20:29;17.97;;;15.93;;
39218;SDS011;24934;52.752;6.964;2024-03-23T14:22:55;18.43;;;16.10;;
39218;SDS011;24934;52.752;6.964;2024-03-23T14:25:21;15.17;;;13.87;;
39218;SDS011;24934;52.752;6.964;2024-03-23T14:27:52;17.40;;;15.80;;
39218;SDS011;24934;52.752;6.964;2024-03-23T14:30:18;17.70;;;15.90;;
39218;SDS011;24934;52.752;6.964;2024-03-23T14:32:44;17.13;;;15.43;;
39218;SDS011;24934;52.752;6.964;2024-03-23T14:35:10;16.90;;;15.10;;
39218;SDS011;24934;52.752;6.964;2024-03-23T14:37:37;19.87;;;15.33;;
39218;SDS011;24934;52.752;6.964;2024-03-23T14:40:03;17.80;;;14.50;;
39218;SDS011;24934;52.752;6.964;2024-03-23T14:42:29;15.50;;;14.00;;
39218;SDS011;24934;52.752;6.964;2024-03-23T14:44:57;15.07;;;13.57;;
39218;SDS011;24934;52.752;6.964;2024-03-23T14:47:23;15.90;;;13.33;;
39218;SDS011;24934;52.752;6.964;2024-03-23T14:49:50;14.80;;;13.07;;
39218;SDS011;24934;52.752;6.964;2024-03-23T14:52:17;16.10;;;12.60;;
39218;SDS011;24934;52.752;6.964;2024-03-23T14:54:46;13.67;;;12.33;;
39218;SDS011;24934;52.752;6.964;2024-03-23T14:57:12;16.13;;;13.17;;
39218;SDS011;24934;52.752;6.964;2024-03-23T14:59:39;18.40;;;12.77;;
39218;SDS011;24934;52.752;6.964;2024-03-23T15:02:08;14.57;;;11.70;;
39218;SDS011;24934;52.752;6.964;2024-03-23T15:04:34;13.77;;;12.37;;
39218;SDS011;24934;52.752;6.964;2024-03-23T15:07:01;13.60;;;12.30;;
39218;SDS011;24934;52.752;6.964;2024-03-23T15:09:27;14.23;;;12.83;;
39218;SDS011;24934;52.752;6.964;2024-03-23T15:11:53;15.00;;;12.93;;
39218;SDS011;24934;52.752;6.964;2024-03-23T15:14:23;14.53;;;12.87;;
39218;SDS011;24934;52.752;6.964;2024-03-23T15:16:49;13.73;;;12.33;;
39218;SDS011;24934;52.752;6.964;2024-03-23T15:19:16;13.50;;;12.17;;
39218;SDS011;24934;52.752;6.964;2024-03-23T15:21:42;15.67;;;12.20;;
39218;SDS011;24934;52.752;6.964;2024-03-23T15:24:08;14.67;;;12.33;;
39218;SDS011;24934;52.752;6.964;2024-03-23T15:26:38;18.77;;;10.87;;